sensor_id;sensor_type;location;lat;lon;timestamp;P1;durP1;ratioP1;P2;durP2;ratioP2
46437;SDS011;32137;48.728;9.142;2023-08-12T00:01:02;8.77;;;5.43;;
46437;SDS011;32137;48.728;9.142;2023-08-12T00:03:28;11.77;;;5.50;;
46437;SDS011;32137;48.728;9.142;2023-08-12T00:05:54;10.10;;;5.45;;
46437;SDS011;32137;48.728;9.142;2023-08-12T00:08:21;7.13;;;4.63;;
46437;SDS011;32137;48.728;9.142;2023-08-12T00:10:47;6.60;;;4.85;;
46437;SDS011;32137;48.728;9.142;2023-08-12T00:13:12;6.78;;;4.82;;
46437;SDS011;32137;48.728;9.142;2023-08-12T00:15:42;8.23;;;5.18;;
46437;SDS011;32137;48.728;9.142;2023-08-12T00:18:08;8.65;;;5.65;;
46437;SDS011;32137;48.728;9.142;2023-08-12T00:20:34;7.75;;;6.00;;
46437;SDS011;32137;48.728;9.142;2023-08-12T00:22:59;6.85;;;4.97;;
46437;SDS011;32137;48.728;9.142;2023-08-12T00:25:25;6.93;;;5.20;;
46437;SDS011;32137;48.728;9.142;2023-08-12T00:27:50;11.32;;;5.20;;
46437;SDS011;32137;48.728;9.142;2023-08-12T00:30:17;9.00;;;5.30;;
46437;SDS011;32137;48.728;9.142;2023-08-12T00:32:42;11.48;;;6.07;;
46437;SDS011;32137;48.728;9.142;2023-08-12T00:35:08;9.73;;;6.20;;
46437;SDS011;32137;48.728;9.142;2023-08-12T00:37:33;11.80;;;5.88;;
46437;SDS011;32137;48.728;9.142;2023-08-12T00:39:59;8.90;;;6.07;;
46437;SDS011;32137;48.728;9.142;2023-08-12T00:42:25;7.13;;;5.25;;
46437;SDS011;32137;48.728;9.142;2023-08-12T00:44:50;12.10;;;4.55;;
46437;SDS011;32137;48.728;9.142;2023-08-12T00:47:16;8.93;;;4.75;;
46437;SDS011;32137;48.728;9.142;2023-08-12T00:49:41;6.35;;;4.93;;
46437;SDS011;32137;48.728;9.142;2023-08-12T00:52:12;8.85;;;4.75;;
46437;SDS011;32137;48.728;9.142;2023-08-12T00:54:38;6.72;;;5.13;;
46437;SDS011;32137;48.728;9.142;2023-08-12T00:57:04;8.23;;;4.65;;
46437;SDS011;32137;48.728;9.142;2023-08-12T00:59:31;8.15;;;5.00;;
46437;SDS011;32137;48.728;9.142;2023-08-12T01:01:59;8.40;;;4.35;;
46437;SDS011;32137;48.728;9.142;2023-08-12T01:04:24;9.43;;;5.70;;
46437;SDS011;32137;48.728;9.142;2023-08-12T01:06:50;7.30;;;4.75;;
46437;SDS011;32137;48.728;9.142;2023-08-12T01:09:15;8.20;;;4.40;;
46437;SDS011;32137;48.728;9.142;2023-08-12T01:11:42;7.55;;;4.07;;
46437;SDS011;32137;48.728;9.142;2023-08-12T01:16:51;7.60;;;4.65;;
46437;SDS011;32137;48.728;9.142;2023-08-12T01:19:34;12.85;;;5.55;;
46437;SDS011;32137;48.728;9.142;2023-08-12T01:22:02;6.47;;;5.03;;
46437;SDS011;32137;48.728;9.142;2023-08-12T01:24:36;6.93;;;4.70;;
46437;SDS011;32137;48.728;9.142;2023-08-12T01:27:06;8.73;;;5.20;;
46437;SDS011;32137;48.728;9.142;2023-08-12T01:29:34;9.73;;;6.13;;
46437;SDS011;32137;48.728;9.142;2023-08-12T01:32:11;6.60;;;5.35;;
46437;SDS011;32137;48.728;9.142;2023-08-12T01:37:36;10.20;;;5.37;;
46437;SDS011;32137;48.728;9.142;2023-08-12T01:40:04;14.85;;;6.45;;
46437;SDS011;32137;48.728;9.142;2023-08-12T01:42:32;8.27;;;5.15;;
46437;SDS011;32137;48.728;9.142;2023-08-12T01:44:58;9.20;;;5.45;;
46437;SDS011;32137;48.728;9.142;2023-08-12T01:47:26;11.65;;;4.75;;
46437;SDS011;32137;48.728;9.142;2023-08-12T01:49:52;8.38;;;4.88;;
46437;SDS011;32137;48.728;9.142;2023-08-12T01:52:18;8.50;;;6.07;;
46437;SDS011;32137;48.728;9.142;2023-08-12T01:54:43;7.00;;;5.72;;
46437;SDS011;32137;48.728;9.142;2023-08-12T01:57:09;8.10;;;5.05;;
46437;SDS011;32137;48.728;9.142;2023-08-12T01:59:35;9.57;;;5.93;;
46437;SDS011;32137;48.728;9.142;2023-08-12T02:02:01;7.32;;;4.93;;
46437;SDS011;32137;48.728;9.142;2023-08-12T02:04:27;8.75;;;5.18;;
46437;SDS011;32137;48.728;9.142;2023-08-12T02:06:52;7.43;;;5.63;;
46437;SDS011;32137;48.728;9.142;2023-08-12T02:09:18;11.18;;;5.63;;
46437;SDS011;32137;48.728;9.142;2023-08-12T02:11:44;9.25;;;5.45;;
46437;SDS011;32137;48.728;9.142;2023-08-12T02:14:09;8.65;;;5.30;;
46437;SDS011;32137;48.728;9.142;2023-08-12T02:16:35;9.45;;;5.10;;
46437;SDS011;32137;48.728;9.142;2023-08-12T02:19:01;7.32;;;5.40;;
46437;SDS011;32137;48.728;9.142;2023-08-12T02:21:27;9.18;;;5.22;;
46437;SDS011;32137;48.728;9.142;2023-08-12T02:23:52;7.68;;;5.63;;
46437;SDS011;32137;48.728;9.142;2023-08-12T02:26:18;9.43;;;5.68;;
46437;SDS011;32137;48.728;9.142;2023-08-12T02:28:43;15.23;;;5.38;;
46437;SDS011;32137;48.728;9.142;2023-08-12T02:31:09;8.43;;;5.90;;
46437;SDS011;32137;48.728;9.142;2023-08-12T02:33:34;11.07;;;5.50;;
46437;SDS011;32137;48.728;9.142;2023-08-12T02:36:00;8.18;;;5.60;;
46437;SDS011;32137;48.728;9.142;2023-08-12T02:38:25;7.30;;;5.55;;
46437;SDS011;32137;48.728;9.142;2023-08-12T02:40:51;9.75;;;5.57;;
46437;SDS011;32137;48.728;9.142;2023-08-12T02:43:17;20.08;;;5.47;;
46437;SDS011;32137;48.728;9.142;2023-08-12T02:45:42;9.98;;;5.53;;
46437;SDS011;32137;48.728;9.142;2023-08-12T02:48:11;8.07;;;5.43;;
46437;SDS011;32137;48.728;9.142;2023-08-12T02:50:37;7.28;;;5.13;;
46437;SDS011;32137;48.728;9.142;2023-08-12T02:53:03;9.35;;;5.50;;
46437;SDS011;32137;48.728;9.142;2023-08-12T02:55:29;8.93;;;5.88;;
46437;SDS011;32137;48.728;9.142;2023-08-12T02:57:56;10.60;;;5.72;;
46437;SDS011;32137;48.728;9.142;2023-08-12T03:00:22;8.70;;;5.32;;
46437;SDS011;32137;48.728;9.142;2023-08-12T03:02:48;10.02;;;5.50;;
46437;SDS011;32137;48.728;9.142;2023-08-12T03:05:13;12.57;;;6.28;;
46437;SDS011;32137;48.728;9.142;2023-08-12T03:07:39;7.40;;;5.03;;
46437;SDS011;32137;48.728;9.142;2023-08-12T03:10:05;6.28;;;4.75;;
46437;SDS011;32137;48.728;9.142;2023-08-12T03:12:31;10.00;;;5.10;;
46437;SDS011;32137;48.728;9.142;2023-08-12T03:14:56;7.05;;;4.90;;
46437;SDS011;32137;48.728;9.142;2023-08-12T03:17:22;9.88;;;5.30;;
46437;SDS011;32137;48.728;9.142;2023-08-12T03:19:47;10.40;;;6.07;;
46437;SDS011;32137;48.728;9.142;2023-08-12T03:22:14;6.38;;;4.75;;
46437;SDS011;32137;48.728;9.142;2023-08-12T03:24:39;13.40;;;5.43;;
46437;SDS011;32137;48.728;9.142;2023-08-12T03:27:05;7.18;;;4.88;;
46437;SDS011;32137;48.728;9.142;2023-08-12T03:29:30;6.20;;;4.65;;
46437;SDS011;32137;48.728;9.142;2023-08-12T03:31:56;8.27;;;5.50;;
46437;SDS011;32137;48.728;9.142;2023-08-12T03:34:22;14.40;;;5.65;;
46437;SDS011;32137;48.728;9.142;2023-08-12T03:36:47;12.40;;;4.68;;
46437;SDS011;32137;48.728;9.142;2023-08-12T03:39:13;10.88;;;5.68;;
46437;SDS011;32137;48.728;9.142;2023-08-12T03:41:39;9.02;;;5.13;;
46437;SDS011;32137;48.728;9.142;2023-08-12T03:44:05;10.75;;;5.63;;
46437;SDS011;32137;48.728;9.142;2023-08-12T03:46:30;6.10;;;5.25;;
46437;SDS011;32137;48.728;9.142;2023-08-12T03:48:56;6.82;;;4.97;;
46437;SDS011;32137;48.728;9.142;2023-08-12T03:51:22;10.02;;;5.97;;
46437;SDS011;32137;48.728;9.142;2023-08-12T03:53:47;9.90;;;5.85;;
46437;SDS011;32137;48.728;9.142;2023-08-12T03:56:13;8.38;;;4.80;;
46437;SDS011;32137;48.728;9.142;2023-08-12T03:58:40;10.80;;;5.43;;
46437;SDS011;32137;48.728;9.142;2023-08-12T04:01:06;6.35;;;4.93;;
46437;SDS011;32137;48.728;9.142;2023-08-12T04:03:31;6.38;;;5.18;;
46437;SDS011;32137;48.728;9.142;2023-08-12T04:05:57;6.82;;;5.22;;
46437;SDS011;32137;48.728;9.142;2023-08-12T04:08:22;8.23;;;5.40;;
46437;SDS011;32137;48.728;9.142;2023-08-12T04:10:49;6.05;;;5.35;;
46437;SDS011;32137;48.728;9.142;2023-08-12T04:13:16;9.30;;;5.20;;
46437;SDS011;32137;48.728;9.142;2023-08-12T04:15:41;7.38;;;4.53;;
46437;SDS011;32137;48.728;9.142;2023-08-12T04:18:07;9.55;;;5.40;;
46437;SDS011;32137;48.728;9.142;2023-08-12T04:20:33;7.25;;;4.88;;
46437;SDS011;32137;48.728;9.142;2023-08-12T04:22:59;7.25;;;4.72;;
46437;SDS011;32137;48.728;9.142;2023-08-12T04:25:24;8.55;;;5.10;;
46437;SDS011;32137;48.728;9.142;2023-08-12T04:27:50;11.98;;;5.72;;
46437;SDS011;32137;48.728;9.142;2023-08-12T04:30:16;6.82;;;4.88;;
46437;SDS011;32137;48.728;9.142;2023-08-12T04:32:42;7.50;;;5.47;;
46437;SDS011;32137;48.728;9.142;2023-08-12T04:35:08;9.00;;;5.00;;
46437;SDS011;32137;48.728;9.142;2023-08-12T04:37:35;6.15;;;4.57;;
46437;SDS011;32137;48.728;9.142;2023-08-12T04:40:01;5.53;;;4.80;;
46437;SDS011;32137;48.728;9.142;2023-08-12T04:42:29;23.83;;;5.60;;
46437;SDS011;32137;48.728;9.142;2023-08-12T04:44:55;7.07;;;5.40;;
46437;SDS011;32137;48.728;9.142;2023-08-12T04:47:20;7.63;;;5.00;;
46437;SDS011;32137;48.728;9.142;2023-08-12T04:49:46;8.52;;;5.35;;
46437;SDS011;32137;48.728;9.142;2023-08-12T04:52:11;6.85;;;4.60;;
46437;SDS011;32137;48.728;9.142;2023-08-12T04:54:37;8.27;;;5.43;;
46437;SDS011;32137;48.728;9.142;2023-08-12T04:57:03;5.95;;;5.13;;
46437;SDS011;32137;48.728;9.142;2023-08-12T04:59:28;7.22;;;5.07;;
46437;SDS011;32137;48.728;9.142;2023-08-12T05:01:54;7.13;;;5.50;;
46437;SDS011;32137;48.728;9.142;2023-08-12T05:04:19;8.80;;;5.50;;
46437;SDS011;32137;48.728;9.142;2023-08-12T05:06:45;7.43;;;5.43;;
46437;SDS011;32137;48.728;9.142;2023-08-12T05:09:11;8.55;;;5.13;;
46437;SDS011;32137;48.728;9.142;2023-08-12T05:11:36;8.65;;;5.20;;
46437;SDS011;32137;48.728;9.142;2023-08-12T05:14:02;7.13;;;5.47;;
46437;SDS011;32137;48.728;9.142;2023-08-12T05:16:27;9.10;;;5.82;;
46437;SDS011;32137;48.728;9.142;2023-08-12T05:18:54;7.90;;;5.22;;
46437;SDS011;32137;48.728;9.142;2023-08-12T05:21:19;7.32;;;5.40;;
46437;SDS011;32137;48.728;9.142;2023-08-12T05:23:45;8.30;;;5.60;;
46437;SDS011;32137;48.728;9.142;2023-08-12T05:26:11;7.57;;;5.20;;
46437;SDS011;32137;48.728;9.142;2023-08-12T05:28:36;19.67;;;5.50;;
46437;SDS011;32137;48.728;9.142;2023-08-12T05:31:02;6.25;;;5.50;;
46437;SDS011;32137;48.728;9.142;2023-08-12T05:33:27;10.20;;;5.63;;
46437;SDS011;32137;48.728;9.142;2023-08-12T05:35:53;11.75;;;5.75;;
46437;SDS011;32137;48.728;9.142;2023-08-12T05:38:18;8.52;;;5.57;;
46437;SDS011;32137;48.728;9.142;2023-08-12T05:40:44;9.98;;;5.88;;
46437;SDS011;32137;48.728;9.142;2023-08-12T05:43:09;8.30;;;5.50;;
46437;SDS011;32137;48.728;9.142;2023-08-12T05:45:35;11.50;;;5.90;;
46437;SDS011;32137;48.728;9.142;2023-08-12T05:48:00;8.55;;;6.20;;
46437;SDS011;32137;48.728;9.142;2023-08-12T05:50:26;7.78;;;6.35;;
46437;SDS011;32137;48.728;9.142;2023-08-12T05:52:52;9.82;;;5.40;;
46437;SDS011;32137;48.728;9.142;2023-08-12T05:55:17;12.45;;;5.70;;
46437;SDS011;32137;48.728;9.142;2023-08-12T05:57:43;7.45;;;6.13;;
46437;SDS011;32137;48.728;9.142;2023-08-12T06:00:08;16.85;;;6.43;;
46437;SDS011;32137;48.728;9.142;2023-08-12T06:02:34;7.03;;;5.55;;
46437;SDS011;32137;48.728;9.142;2023-08-12T06:05:01;8.07;;;6.05;;
46437;SDS011;32137;48.728;9.142;2023-08-12T06:07:27;13.02;;;6.82;;
46437;SDS011;32137;48.728;9.142;2023-08-12T06:09:52;9.18;;;6.15;;
46437;SDS011;32137;48.728;9.142;2023-08-12T06:12:18;8.10;;;6.32;;
46437;SDS011;32137;48.728;9.142;2023-08-12T06:14:44;8.95;;;6.35;;
46437;SDS011;32137;48.728;9.142;2023-08-12T06:17:09;8.25;;;6.28;;
46437;SDS011;32137;48.728;9.142;2023-08-12T06:19:35;8.00;;;5.82;;
46437;SDS011;32137;48.728;9.142;2023-08-12T06:22:00;7.32;;;5.78;;
46437;SDS011;32137;48.728;9.142;2023-08-12T06:24:26;11.98;;;6.32;;
46437;SDS011;32137;48.728;9.142;2023-08-12T06:26:51;9.45;;;6.43;;
46437;SDS011;32137;48.728;9.142;2023-08-12T06:29:17;13.45;;;7.30;;
46437;SDS011;32137;48.728;9.142;2023-08-12T06:31:43;11.50;;;7.03;;
46437;SDS011;32137;48.728;9.142;2023-08-12T06:34:08;10.82;;;6.70;;
46437;SDS011;32137;48.728;9.142;2023-08-12T06:36:34;11.15;;;7.40;;
46437;SDS011;32137;48.728;9.142;2023-08-12T06:38:59;9.52;;;6.38;;
46437;SDS011;32137;48.728;9.142;2023-08-12T06:41:25;9.15;;;6.15;;
46437;SDS011;32137;48.728;9.142;2023-08-12T06:43:50;9.55;;;6.70;;
46437;SDS011;32137;48.728;9.142;2023-08-12T06:46:16;6.85;;;5.85;;
46437;SDS011;32137;48.728;9.142;2023-08-12T06:48:41;9.02;;;6.72;;
46437;SDS011;32137;48.728;9.142;2023-08-12T06:51:07;11.93;;;6.28;;
46437;SDS011;32137;48.728;9.142;2023-08-12T06:53:35;13.50;;;6.53;;
46437;SDS011;32137;48.728;9.142;2023-08-12T06:56:02;10.15;;;5.80;;
46437;SDS011;32137;48.728;9.142;2023-08-12T06:58:27;10.98;;;6.07;;
46437;SDS011;32137;48.728;9.142;2023-08-12T07:00:53;11.68;;;5.75;;
46437;SDS011;32137;48.728;9.142;2023-08-12T07:03:19;8.65;;;6.28;;
46437;SDS011;32137;48.728;9.142;2023-08-12T07:05:44;14.32;;;7.70;;
46437;SDS011;32137;48.728;9.142;2023-08-12T07:08:10;6.75;;;5.47;;
46437;SDS011;32137;48.728;9.142;2023-08-12T07:10:39;8.80;;;5.57;;
46437;SDS011;32137;48.728;9.142;2023-08-12T07:13:05;10.10;;;6.00;;
46437;SDS011;32137;48.728;9.142;2023-08-12T07:15:30;9.05;;;5.80;;
46437;SDS011;32137;48.728;9.142;2023-08-12T07:17:56;13.13;;;5.57;;
46437;SDS011;32137;48.728;9.142;2023-08-12T07:20:23;8.88;;;5.57;;
46437;SDS011;32137;48.728;9.142;2023-08-12T07:22:49;14.85;;;5.88;;
46437;SDS011;32137;48.728;9.142;2023-08-12T07:25:15;9.73;;;4.28;;
46437;SDS011;32137;48.728;9.142;2023-08-12T07:27:40;5.80;;;4.82;;
46437;SDS011;32137;48.728;9.142;2023-08-12T07:30:06;10.40;;;4.97;;
46437;SDS011;32137;48.728;9.142;2023-08-12T07:32:32;6.93;;;5.28;;
46437;SDS011;32137;48.728;9.142;2023-08-12T07:34:58;7.70;;;5.68;;
46437;SDS011;32137;48.728;9.142;2023-08-12T07:37:24;9.90;;;5.25;;
46437;SDS011;32137;48.728;9.142;2023-08-12T07:39:50;10.52;;;4.88;;
46437;SDS011;32137;48.728;9.142;2023-08-12T07:42:16;6.95;;;4.85;;
46437;SDS011;32137;48.728;9.142;2023-08-12T07:44:42;8.18;;;4.90;;
46437;SDS011;32137;48.728;9.142;2023-08-12T07:47:08;11.23;;;5.30;;
46437;SDS011;32137;48.728;9.142;2023-08-12T07:49:34;8.07;;;5.38;;
46437;SDS011;32137;48.728;9.142;2023-08-12T07:52:00;6.75;;;5.43;;
46437;SDS011;32137;48.728;9.142;2023-08-12T07:54:25;8.15;;;5.57;;
46437;SDS011;32137;48.728;9.142;2023-08-12T07:56:51;6.13;;;4.25;;
46437;SDS011;32137;48.728;9.142;2023-08-12T07:59:18;6.45;;;4.55;;
46437;SDS011;32137;48.728;9.142;2023-08-12T08:01:44;9.48;;;4.28;;
46437;SDS011;32137;48.728;9.142;2023-08-12T08:04:10;6.82;;;4.85;;
46437;SDS011;32137;48.728;9.142;2023-08-12T08:06:35;5.95;;;4.15;;
46437;SDS011;32137;48.728;9.142;2023-08-12T08:09:01;7.50;;;4.60;;
46437;SDS011;32137;48.728;9.142;2023-08-12T08:11:28;5.00;;;3.90;;
46437;SDS011;32137;48.728;9.142;2023-08-12T08:13:55;8.18;;;4.32;;
46437;SDS011;32137;48.728;9.142;2023-08-12T08:16:21;5.38;;;3.90;;
46437;SDS011;32137;48.728;9.142;2023-08-12T08:18:47;5.72;;;3.85;;
46437;SDS011;32137;48.728;9.142;2023-08-12T08:21:13;5.25;;;3.63;;
46437;SDS011;32137;48.728;9.142;2023-08-12T08:23:40;7.55;;;3.35;;
46437;SDS011;32137;48.728;9.142;2023-08-12T08:26:05;4.30;;;3.33;;
46437;SDS011;32137;48.728;9.142;2023-08-12T08:28:31;4.95;;;3.75;;
46437;SDS011;32137;48.728;9.142;2023-08-12T08:30:57;4.97;;;3.67;;
46437;SDS011;32137;48.728;9.142;2023-08-12T08:33:23;7.40;;;4.75;;
46437;SDS011;32137;48.728;9.142;2023-08-12T08:35:49;5.50;;;4.07;;
46437;SDS011;32137;48.728;9.142;2023-08-12T08:38:15;8.85;;;5.00;;
46437;SDS011;32137;48.728;9.142;2023-08-12T08:40:41;14.80;;;4.25;;
46437;SDS011;32137;48.728;9.142;2023-08-12T08:43:07;8.43;;;4.38;;
46437;SDS011;32137;48.728;9.142;2023-08-12T08:45:33;6.85;;;3.80;;
46437;SDS011;32137;48.728;9.142;2023-08-12T08:47:59;5.18;;;3.40;;
46437;SDS011;32137;48.728;9.142;2023-08-12T08:50:27;6.20;;;4.35;;
46437;SDS011;32137;48.728;9.142;2023-08-12T08:52:54;7.55;;;3.65;;
46437;SDS011;32137;48.728;9.142;2023-08-12T08:55:21;4.88;;;3.65;;
46437;SDS011;32137;48.728;9.142;2023-08-12T08:57:47;5.10;;;3.35;;
46437;SDS011;32137;48.728;9.142;2023-08-12T09:00:18;5.97;;;3.03;;
46437;SDS011;32137;48.728;9.142;2023-08-12T09:02:45;7.95;;;4.03;;
46437;SDS011;32137;48.728;9.142;2023-08-12T09:05:14;3.47;;;2.83;;
46437;SDS011;32137;48.728;9.142;2023-08-12T09:07:41;4.25;;;2.78;;
46437;SDS011;32137;48.728;9.142;2023-08-12T09:10:08;5.97;;;3.10;;
46437;SDS011;32137;48.728;9.142;2023-08-12T09:12:35;7.88;;;3.10;;
46437;SDS011;32137;48.728;9.142;2023-08-12T09:15:01;8.32;;;3.70;;
46437;SDS011;32137;48.728;9.142;2023-08-12T09:17:29;4.97;;;3.42;;
46437;SDS011;32137;48.728;9.142;2023-08-12T09:19:57;3.63;;;2.80;;
46437;SDS011;32137;48.728;9.142;2023-08-12T09:22:23;3.63;;;2.70;;
46437;SDS011;32137;48.728;9.142;2023-08-12T09:24:50;16.45;;;3.50;;
46437;SDS011;32137;48.728;9.142;2023-08-12T09:27:23;4.93;;;2.60;;
46437;SDS011;32137;48.728;9.142;2023-08-12T09:29:49;3.47;;;2.90;;
46437;SDS011;32137;48.728;9.142;2023-08-12T09:32:19;4.07;;;2.60;;
46437;SDS011;32137;48.728;9.142;2023-08-12T09:34:51;4.00;;;2.63;;
46437;SDS011;32137;48.728;9.142;2023-08-12T09:37:22;6.50;;;3.42;;
46437;SDS011;32137;48.728;9.142;2023-08-12T09:39:49;4.68;;;2.78;;
46437;SDS011;32137;48.728;9.142;2023-08-12T09:42:16;4.57;;;2.72;;
46437;SDS011;32137;48.728;9.142;2023-08-12T09:44:42;8.18;;;2.88;;
46437;SDS011;32137;48.728;9.142;2023-08-12T09:47:08;7.07;;;3.08;;
46437;SDS011;32137;48.728;9.142;2023-08-12T09:49:35;3.97;;;2.97;;
46437;SDS011;32137;48.728;9.142;2023-08-12T09:52:01;5.50;;;2.75;;
46437;SDS011;32137;48.728;9.142;2023-08-12T09:54:28;5.03;;;3.33;;
46437;SDS011;32137;48.728;9.142;2023-08-12T09:56:57;4.05;;;2.33;;
46437;SDS011;32137;48.728;9.142;2023-08-12T09:59:25;6.07;;;3.55;;
46437;SDS011;32137;48.728;9.142;2023-08-12T10:04:22;5.53;;;3.45;;
46437;SDS011;32137;48.728;9.142;2023-08-12T10:06:52;5.43;;;3.30;;
46437;SDS011;32137;48.728;9.142;2023-08-12T10:09:18;4.80;;;3.03;;
46437;SDS011;32137;48.728;9.142;2023-08-12T10:11:45;4.63;;;2.30;;
46437;SDS011;32137;48.728;9.142;2023-08-12T10:14:12;5.32;;;2.90;;
46437;SDS011;32137;48.728;9.142;2023-08-12T10:16:39;3.47;;;2.55;;
46437;SDS011;32137;48.728;9.142;2023-08-12T10:19:11;5.50;;;2.88;;
46437;SDS011;32137;48.728;9.142;2023-08-12T10:21:37;4.55;;;2.78;;
46437;SDS011;32137;48.728;9.142;2023-08-12T10:24:03;6.15;;;2.78;;
46437;SDS011;32137;48.728;9.142;2023-08-12T10:26:30;3.70;;;2.97;;
46437;SDS011;32137;48.728;9.142;2023-08-12T10:28:57;11.70;;;3.83;;
46437;SDS011;32137;48.728;9.142;2023-08-12T10:31:25;3.30;;;2.95;;
46437;SDS011;32137;48.728;9.142;2023-08-12T10:33:53;3.25;;;2.67;;
46437;SDS011;32137;48.728;9.142;2023-08-12T10:36:19;5.53;;;2.90;;
46437;SDS011;32137;48.728;9.142;2023-08-12T10:38:46;5.57;;;3.90;;
46437;SDS011;32137;48.728;9.142;2023-08-12T10:41:15;6.93;;;3.13;;
46437;SDS011;32137;48.728;9.142;2023-08-12T10:46:22;9.57;;;3.13;;
46437;SDS011;32137;48.728;9.142;2023-08-12T10:49:02;5.38;;;3.30;;
46437;SDS011;32137;48.728;9.142;2023-08-12T10:51:54;4.45;;;3.10;;
46437;SDS011;32137;48.728;9.142;2023-08-12T10:54:23;4.38;;;3.67;;
46437;SDS011;32137;48.728;9.142;2023-08-12T11:02:22;4.72;;;3.13;;
46437;SDS011;32137;48.728;9.142;2023-08-12T11:04:56;6.05;;;3.63;;
46437;SDS011;32137;48.728;9.142;2023-08-12T11:10:13;7.75;;;3.92;;
46437;SDS011;32137;48.728;9.142;2023-08-12T11:13:02;10.77;;;3.53;;
46437;SDS011;32137;48.728;9.142;2023-08-12T11:15:31;5.82;;;3.05;;
46437;SDS011;32137;48.728;9.142;2023-08-12T11:18:04;3.63;;;2.80;;
46437;SDS011;32137;48.728;9.142;2023-08-12T11:20:31;4.05;;;2.85;;
46437;SDS011;32137;48.728;9.142;2023-08-12T11:22:57;5.22;;;3.70;;
46437;SDS011;32137;48.728;9.142;2023-08-12T11:25:24;7.18;;;3.40;;
46437;SDS011;32137;48.728;9.142;2023-08-12T11:27:50;5.82;;;3.03;;
46437;SDS011;32137;48.728;9.142;2023-08-12T11:30:17;4.93;;;3.22;;
46437;SDS011;32137;48.728;9.142;2023-08-12T11:32:46;5.07;;;3.55;;
46437;SDS011;32137;48.728;9.142;2023-08-12T11:35:13;10.18;;;3.58;;
46437;SDS011;32137;48.728;9.142;2023-08-12T11:37:41;5.47;;;3.38;;
46437;SDS011;32137;48.728;9.142;2023-08-12T11:40:12;7.68;;;3.22;;
46437;SDS011;32137;48.728;9.142;2023-08-12T11:42:40;6.68;;;3.38;;
46437;SDS011;32137;48.728;9.142;2023-08-12T11:45:07;8.70;;;3.53;;
46437;SDS011;32137;48.728;9.142;2023-08-12T11:47:36;5.47;;;3.42;;
46437;SDS011;32137;48.728;9.142;2023-08-12T11:50:12;6.87;;;3.30;;
46437;SDS011;32137;48.728;9.142;2023-08-12T11:52:38;3.53;;;2.30;;
46437;SDS011;32137;48.728;9.142;2023-08-12T11:55:04;8.00;;;3.15;;
46437;SDS011;32137;48.728;9.142;2023-08-12T11:57:31;3.97;;;2.70;;
46437;SDS011;32137;48.728;9.142;2023-08-12T12:00:09;5.32;;;3.05;;
46437;SDS011;32137;48.728;9.142;2023-08-12T12:02:41;5.22;;;3.13;;
46437;SDS011;32137;48.728;9.142;2023-08-12T12:05:11;7.15;;;3.10;;
46437;SDS011;32137;48.728;9.142;2023-08-12T12:07:36;4.55;;;2.83;;
46437;SDS011;32137;48.728;9.142;2023-08-12T12:10:03;6.00;;;2.90;;
46437;SDS011;32137;48.728;9.142;2023-08-12T12:12:30;10.32;;;3.25;;
46437;SDS011;32137;48.728;9.142;2023-08-12T12:15:00;5.45;;;2.70;;
46437;SDS011;32137;48.728;9.142;2023-08-12T12:17:25;5.65;;;3.25;;
46437;SDS011;32137;48.728;9.142;2023-08-12T12:19:52;12.07;;;3.60;;
46437;SDS011;32137;48.728;9.142;2023-08-12T12:22:20;9.20;;;4.05;;
46437;SDS011;32137;48.728;9.142;2023-08-12T12:24:45;12.93;;;4.88;;
46437;SDS011;32137;48.728;9.142;2023-08-12T12:27:13;7.30;;;4.82;;
46437;SDS011;32137;48.728;9.142;2023-08-12T12:29:39;10.23;;;4.80;;
46437;SDS011;32137;48.728;9.142;2023-08-12T12:32:05;9.18;;;5.07;;
46437;SDS011;32137;48.728;9.142;2023-08-12T12:34:30;13.48;;;5.57;;
46437;SDS011;32137;48.728;9.142;2023-08-12T12:36:56;6.78;;;4.80;;
46437;SDS011;32137;48.728;9.142;2023-08-12T12:39:22;9.23;;;4.85;;
46437;SDS011;32137;48.728;9.142;2023-08-12T12:41:48;8.68;;;5.10;;
46437;SDS011;32137;48.728;9.142;2023-08-12T12:44:14;10.52;;;5.97;;
46437;SDS011;32137;48.728;9.142;2023-08-12T12:46:39;9.35;;;6.05;;
46437;SDS011;32137;48.728;9.142;2023-08-12T12:49:05;10.45;;;6.32;;
46437;SDS011;32137;48.728;9.142;2023-08-12T12:51:31;7.60;;;5.50;;
46437;SDS011;32137;48.728;9.142;2023-08-12T12:53:57;9.60;;;6.68;;
46437;SDS011;32137;48.728;9.142;2023-08-12T12:56:22;8.73;;;6.63;;
46437;SDS011;32137;48.728;9.142;2023-08-12T12:58:48;9.73;;;8.60;;
46437;SDS011;32137;48.728;9.142;2023-08-12T13:01:14;12.05;;;8.80;;
46437;SDS011;32137;48.728;9.142;2023-08-12T13:03:39;12.10;;;8.93;;
46437;SDS011;32137;48.728;9.142;2023-08-12T13:06:05;9.05;;;7.97;;
46437;SDS011;32137;48.728;9.142;2023-08-12T13:08:31;8.23;;;7.13;;
46437;SDS011;32137;48.728;9.142;2023-08-12T13:10:57;10.00;;;8.45;;
46437;SDS011;32137;48.728;9.142;2023-08-12T13:13:23;9.60;;;8.15;;
46437;SDS011;32137;48.728;9.142;2023-08-12T13:15:48;11.18;;;8.32;;
46437;SDS011;32137;48.728;9.142;2023-08-12T13:18:14;13.18;;;7.43;;
46437;SDS011;32137;48.728;9.142;2023-08-12T13:20:40;15.68;;;7.97;;
46437;SDS011;32137;48.728;9.142;2023-08-12T13:23:06;15.23;;;7.43;;
46437;SDS011;32137;48.728;9.142;2023-08-12T13:25:32;12.23;;;6.85;;
46437;SDS011;32137;48.728;9.142;2023-08-12T13:28:01;9.20;;;6.30;;
46437;SDS011;32137;48.728;9.142;2023-08-12T13:30:28;9.80;;;4.95;;
46437;SDS011;32137;48.728;9.142;2023-08-12T13:32:54;6.32;;;4.25;;
46437;SDS011;32137;48.728;9.142;2023-08-12T13:35:20;10.05;;;3.70;;
46437;SDS011;32137;48.728;9.142;2023-08-12T13:37:46;8.25;;;4.95;;
46437;SDS011;32137;48.728;9.142;2023-08-12T13:40:12;6.55;;;5.07;;
46437;SDS011;32137;48.728;9.142;2023-08-12T13:42:39;8.35;;;4.18;;
46437;SDS011;32137;48.728;9.142;2023-08-12T13:45:06;6.75;;;3.55;;
46437;SDS011;32137;48.728;9.142;2023-08-12T13:47:33;13.27;;;4.30;;
46437;SDS011;32137;48.728;9.142;2023-08-12T13:49:59;6.10;;;3.47;;
46437;SDS011;32137;48.728;9.142;2023-08-12T13:52:24;11.27;;;3.95;;
46437;SDS011;32137;48.728;9.142;2023-08-12T13:54:50;6.20;;;3.92;;
46437;SDS011;32137;48.728;9.142;2023-08-12T13:57:15;8.80;;;3.90;;
46437;SDS011;32137;48.728;9.142;2023-08-12T13:59:41;5.70;;;3.35;;
46437;SDS011;32137;48.728;9.142;2023-08-12T14:02:09;8.02;;;3.60;;
46437;SDS011;32137;48.728;9.142;2023-08-12T14:04:35;5.30;;;3.45;;
46437;SDS011;32137;48.728;9.142;2023-08-12T14:07:02;7.15;;;3.50;;
46437;SDS011;32137;48.728;9.142;2023-08-12T14:09:28;5.78;;;3.63;;
46437;SDS011;32137;48.728;9.142;2023-08-12T14:11:54;5.75;;;3.35;;
46437;SDS011;32137;48.728;9.142;2023-08-12T14:14:19;4.95;;;3.08;;
46437;SDS011;32137;48.728;9.142;2023-08-12T14:16:45;6.60;;;3.15;;
46437;SDS011;32137;48.728;9.142;2023-08-12T14:19:10;5.07;;;3.13;;
46437;SDS011;32137;48.728;9.142;2023-08-12T14:21:36;6.00;;;3.10;;
46437;SDS011;32137;48.728;9.142;2023-08-12T14:24:02;3.63;;;2.70;;
46437;SDS011;32137;48.728;9.142;2023-08-12T14:26:27;39.92;;;6.35;;
46437;SDS011;32137;48.728;9.142;2023-08-12T14:28:53;6.60;;;2.47;;
46437;SDS011;32137;48.728;9.142;2023-08-12T14:31:18;5.15;;;2.50;;
46437;SDS011;32137;48.728;9.142;2023-08-12T14:33:44;5.25;;;2.65;;
46437;SDS011;32137;48.728;9.142;2023-08-12T14:36:09;4.40;;;2.00;;
46437;SDS011;32137;48.728;9.142;2023-08-12T14:38:35;6.00;;;2.08;;
46437;SDS011;32137;48.728;9.142;2023-08-12T14:41:01;3.70;;;2.00;;
46437;SDS011;32137;48.728;9.142;2023-08-12T14:43:26;3.67;;;1.98;;
46437;SDS011;32137;48.728;9.142;2023-08-12T14:45:52;4.82;;;2.10;;
46437;SDS011;32137;48.728;9.142;2023-08-12T14:48:17;3.30;;;2.13;;
46437;SDS011;32137;48.728;9.142;2023-08-12T14:50:43;2.78;;;1.95;;
46437;SDS011;32137;48.728;9.142;2023-08-12T14:53:09;3.88;;;1.95;;
46437;SDS011;32137;48.728;9.142;2023-08-12T14:55:35;5.57;;;2.13;;
46437;SDS011;32137;48.728;9.142;2023-08-12T14:58:00;3.95;;;2.00;;
46437;SDS011;32137;48.728;9.142;2023-08-12T15:00:26;4.47;;;2.10;;